Latest Weather Observations for Frankston

IDV60901

Issued at 6:01 pm EST Thursday 9 April 2020 (issued every 10 minutes, with the page automatically refreshed every 10 minutes)

About weather observations | Map of Melbourne area stations | Latest observations for Melbourne area | Other Formats
Station Details ID: 086371 Name: FRANKSTON AWS Lat: -38.15 Lon: 145.12 Height: 6.0 m
Data from the previous 72 hours. | See also: Recent months at Frankston
Date/Time
EST
Temp
°C
App
Temp
°C
Dew
Point
°C
Rel
Hum
%
Delta-T
°C
Wind Press
QNH
hPa
Press
MSL
hPa
Rain since
9am
mm
Dir  Spd
km/h
Gust
km/h
Spd
kts
Gust
kts
09/05:30pm - - - - - SSE 9 11 5 6 - - -
09/05:00pm - - - - - SE 7 11 4 6 - - -
09/04:30pm - - - - - SSE 9 13 5 7 - - -
09/04:00pm - - - - - SW 13 19 7 10 - - -
09/03:30pm - - - - - W 19 22 10 12 - - -
09/03:00pm - - - - - WSW 17 20 9 11 - - -
09/02:30pm - - - - - WSW 17 19 9 10 - - -
09/02:00pm - - - - - W 13 17 7 9 - - -
09/01:30pm - - - - - W 13 15 7 8 - - -
09/01:00pm - - - - - W 13 15 7 8 - - -
09/12:30pm - - - - - WNW 11 13 6 7 - - -
09/12:00pm - - - - - NNW 13 15 7 8 - - -
09/11:30am - - - - - ESE 9 15 5 8 - - -
09/11:00am - - - - - ENE 13 20 7 11 - - -
09/10:30am - - - - - E 9 15 5 8 - - -
09/10:00am - - - - - ESE 17 26 9 14 - - -
09/09:30am - - - - - E 17 22 9 12 - - -
09/09:00am - - - - - E 13 19 7 10 - - -
09/08:30am - - - - - E 13 22 7 12 - - -
09/08:00am - - - - - E 11 17 6 9 - - -
09/07:30am - - - - - E 9 13 5 7 - - -
09/07:00am - - - - - E 9 13 5 7 - - -
09/06:30am - - - - - E 9 15 5 8 - - -
09/06:00am - - - - - E 13 19 7 10 - - -
09/05:30am - - - - - ESE 13 20 7 11 - - -
09/05:00am - - - - - ESE 15 26 8 14 - - -
09/04:30am - - - - - ESE 15 26 8 14 - - -
09/04:00am - - - - - ESE 17 28 9 15 - - -
09/03:30am - - - - - ESE 17 32 9 17 - - -
09/03:00am - - - - - ESE 17 30 9 16 - - -
09/02:30am - - - - - ESE 17 28 9 15 - - -
09/02:00am - - - - - ESE 15 28 8 15 - - -
09/01:30am - - - - - SE 15 22 8 12 - - -
09/01:00am - - - - - ESE 13 24 7 13 - - -
09/12:30am - - - - - ESE 15 24 8 13 - - -
09/12:00am - - - - - ESE 15 24 8 13 - - -
 
Date/Time
EST
Temp
°C
App
Temp
°C
Dew
Point
°C
Rel
Hum
%
Delta-T
°C
Wind Press
QNH
hPa
Press
MSL
hPa
Rain since
9am
mm
Dir  Spd
km/h
Gust
km/h
Spd
kts
Gust
kts
08/11:30pm - - - - - ESE 17 30 9 16 - - -
08/11:00pm - - - - - ESE 20 37 11 20 - - -
08/10:30pm - - - - - SE 15 28 8 15 - - -
08/10:00pm - - - - - SE 19 30 10 16 - - -
08/09:30pm - - - - - SE 15 30 8 16 - - -
08/09:00pm - - - - - SE 15 26 8 14 - - -
08/08:30pm - - - - - SE 15 24 8 13 - - -
08/08:00pm - - - - - SE 13 19 7 10 - - -
08/07:30pm - - - - - SE 13 19 7 10 - - -
08/07:00pm - - - - - SE 11 17 6 9 - - -
08/06:30pm - - - - - SSE 7 13 4 7 - - -
08/06:00pm - - - - - SSE 7 13 4 7 - - -
08/05:30pm - - - - - SSE 11 19 6 10 - - -
08/05:00pm - - - - - S 11 17 6 9 - - -
08/04:30pm - - - - - S 13 24 7 13 - - -
08/04:00pm - - - - - SSE 13 20 7 11 - - -
08/03:30pm - - - - - SSE 13 20 7 11 - - -
08/03:00pm - - - - - S 9 17 5 9 - - -
08/02:30pm - - - - - SE 13 20 7 11 - - -
08/02:00pm - - - - - SSE 13 26 7 14 - - -
08/01:30pm - - - - - ESE 9 19 5 10 - - -
08/01:00pm - - - - - SE 13 24 7 13 - - -
08/12:30pm - - - - - SE 11 19 6 10 - - -
08/12:00pm - - - - - SSE 13 17 7 9 - - -
08/11:30am - - - - - S 9 17 5 9 - - -
08/11:00am - - - - - S 9 17 5 9 - - -
08/10:30am - - - - - S 6 9 3 5 - - -
08/10:00am - - - - - ESE 11 13 6 7 - - -
08/09:30am - - - - - SSE 4 9 2 5 - - -
08/09:00am - - - - - SW 9 11 5 6 - - -
08/08:30am - - - - - SE 7 9 4 5 - - -
08/08:00am - - - - - ESE 9 11 5 6 - - -
08/07:30am - - - - - ESE 7 9 4 5 - - -
08/07:00am - - - - - SE 7 11 4 6 - - -
08/06:30am - - - - - SE 6 9 3 5 - - -
08/06:00am - - - - - ESE 6 7 3 4 - - -
08/05:30am - - - - - SE 6 7 3 4 - - -
08/05:00am - - - - - ESE 7 9 4 5 - - -
08/04:30am - - - - - E 7 9 4 5 - - -
08/04:00am - - - - - SE 2 7 1 4 - - -
08/03:30am - - - - - CALM 0 0 0 0 - - -
08/03:00am - - - - - SSW 7 9 4 5 - - -
08/02:30am - - - - - CALM 0 0 0 0 - - -
08/02:00am - - - - - CALM 0 0 0 0 - - -
08/01:30am - - - - - CALM 0 0 0 0 - - -
08/01:00am - - - - - CALM 0 0 0 0 - - -
08/12:30am - - - - - SE 2 7 1 4 - - -
08/12:00am - - - - - CALM 0 2 0 1 - - -
 
Date/Time
EST
Temp
°C
App
Temp
°C
Dew
Point
°C
Rel
Hum
%
Delta-T
°C
Wind Press
QNH
hPa
Press
MSL
hPa
Rain since
9am
mm
Dir  Spd
km/h
Gust
km/h
Spd
kts
Gust
kts
07/11:30pm - - - - - CALM 0 0 0 0 - - -
07/11:00pm - - - - - ENE 6 7 3 4 - - -
07/10:30pm - - - - - ESE 7 9 4 5 - - -
07/10:00pm - - - - - S 9 13 5 7 - - -
07/09:30pm - - - - - SSE 9 13 5 7 - - -
07/09:00pm - - - - - S 9 15 5 8 - - -
07/08:30pm - - - - - SSW 9 13 5 7 - - -
07/08:00pm - - - - - SSW 7 9 4 5 - - -
07/07:30pm - - - - - S 9 11 5 6 - - -
07/07:00pm - - - - - S 15 20 8 11 - - -
07/06:30pm - - - - - SSW 11 19 6 10 - - -
07/06:00pm - - - - - S 9 17 5 9 - - -
07/05:30pm - - - - - SSW 9 13 5 7 - - -
07/05:00pm - - - - - SW 9 11 5 6 - - -
07/04:30pm - - - - - SW 9 15 5 8 - - -
07/04:00pm - - - - - SSW 11 15 6 8 - - -
07/03:30pm - - - - - SW 15 19 8 10 - - -
07/03:00pm - - - - - WSW 20 26 11 14 - - -
07/02:30pm - - - - - WSW 20 24 11 13 - - -
07/02:00pm - - - - - WSW 19 24 10 13 - - -
07/01:30pm - - - - - WSW 19 22 10 12 - - -
07/01:00pm - - - - - WSW 17 20 9 11 - - -
07/12:30pm - - - - - SW 15 19 8 10 - - -
07/12:00pm - - - - - SW 11 19 6 10 - - -
07/11:30am - - - - - SSW 11 15 6 8 - - -
07/11:00am - - - - - W 11 15 6 8 - - -
07/10:30am - - - - - WNW 7 11 4 6 - - -
07/10:00am - - - - - N 2 7 1 4 - - -
07/09:30am - - - - - CALM 0 0 0 0 - - -
07/09:00am - - - - - ESE 2 7 1 4 - - -
07/08:30am - - - - - SE 6 9 3 5 - - -
07/08:00am - - - - - SSE 7 9 4 5 - - -
07/07:30am - - - - - SSE 7 9 4 5 - - -
07/07:00am - - - - - S 7 9 4 5 - - -
07/06:30am - - - - - ESE 7 7 4 4 - - -
07/06:00am - - - - - SE 7 9 4 5 - - -
07/05:30am - - - - - SE 9 11 5 6 - - -
07/05:00am - - - - - SSE 6 9 3 5 - - -
07/04:30am - - - - - SSE 6 9 3 5 - - -
07/04:00am - - - - - S 9 13 5 7 - - -
07/03:30am - - - - - SSE 9 13 5 7 - - -
07/03:00am - - - - - S 9 11 5 6 - - -
07/02:30am - - - - - SSE 9 13 5 7 - - -
07/02:00am - - - - - S 9 13 5 7 - - -
07/01:30am - - - - - S 7 9 4 5 - - -
07/01:00am - - - - - S 9 13 5 7 - - -
07/12:30am - - - - - SSE 4 7 2 4 - - -
07/12:00am - - - - - SSW 7 9 4 5 - - -
 
Date/Time
EST
Temp
°C
App
Temp
°C
Dew
Point
°C
Rel
Hum
%
Delta-T
°C
Wind Press
QNH
hPa
Press
MSL
hPa
Rain since
9am
mm
Dir  Spd
km/h
Gust
km/h
Spd
kts
Gust
kts
06/11:30pm - - - - - SW 13 15 7 8 - - -
06/11:00pm - - - - - SW 13 15 7 8 - - -
06/10:30pm - - - - - SSW 13 19 7 10 - - -
06/10:00pm - - - - - SSE 7 11 4 6 - - -
06/09:30pm - - - - - S 7 13 4 7 - - -
06/09:00pm - - - - - S 9 13 5 7 - - -
06/08:30pm - - - - - S 7 11 4 6 - - -
06/08:00pm - - - - - SSE 9 11 5 6 - - -
06/07:30pm - - - - - S 9 11 5 6 - - -
06/07:00pm - - - - - S 9 11 5 6 - - -
06/06:30pm - - - - - SSW 9 13 5 7 - - -

Latest Capital City Observations: Canberra | Sydney | Melbourne | Brisbane | Adelaide | Perth | Hobart | Darwin

Other formats

Comma delimited format used in spreadsheet applications
http://www.bom.gov.au/fwo/IDV60901/IDV60901.94871.axf

JavaScript Object Notation format (JSON) in row-major order
http://www.bom.gov.au/fwo/IDV60901/IDV60901.94871.json

Data quality

Most of these data are generated automatically and are frequently updated. Quality checks on data are not normally performed. It is possible for incorrect values to appear. Refer to information at About Latest Weather Observations and please check the disclaimer before using these data.